KARB/ARB METAR and TAF weather

Enter ICAO airport designator
Station Type Date Time Source
KARB METAR 2020/02/26 08:53 UTC NOAA

KARB 260853Z AUTO 03010KT 4SM -SN BR SCT015 OVC034 M01/M03 A2992 RMK AO2 SLP141 P0000 60000 T10111033 56013


Station Type Date Time Source
KARB Decoded METAR 2020/02/26 08:53 UTC NOAA

ANN ARBOR MUNICIPAL AIRPORT, MI, United States (KARB) 42-13N 083-45W 251M
Feb 26, 2020 - 03:53 AM EST / 2020.02.26 0853 UTC
Wind: from the NNE (030 degrees) at 12 MPH (10 KT):0
Visibility: 4 mile(s):0
Sky conditions: overcast
Weather: light snow; mist
Precipitation last hour: A trace
Temperature: 30.0 F (-1.1 C)
Windchill: 19 F (-7 C):1
Dew Point: 26.1 F (-3.3 C)
Relative Humidity: 84%
Pressure (altimeter): 29.92 in. Hg (1013 hPa)
Pressure tendency: 0.04 inches (1.3 hPa) lower than three hours ago
ob: KARB 260853Z AUTO 03010KT 4SM -SN BR SCT015 OVC034 M01/M03 A2992 RMK AO2 SLP141 P0000 60000 T10111033 56013
cycle: 9

Station Type Date Time Source
KARB TAF UTC NOAA

Error!

Example: see airport list